createdAt,value
2022-09-03T00:01:51.024Z,100418.22
2022-09-03T00:07:03.159Z,100418.81
2022-09-03T00:12:25.158Z,100409.78
2022-09-03T00:17:40.202Z,100411.88
2022-09-03T00:22:55.555Z,100407.75
2022-09-03T00:27:58.979Z,100408.34
2022-09-03T00:33:19.018Z,100409.06
2022-09-03T00:38:22.776Z,100399.84
2022-09-03T00:44:02.503Z,100401.97
2022-09-03T00:49:25.504Z,100407.91
2022-09-03T00:54:50.015Z,100397.28
2022-09-03T00:59:57.204Z,100402.53
2022-09-03T01:05:41.037Z,100413.31
2022-09-03T01:11:04.490Z,100412.59
2022-09-03T01:16:40.589Z,100409.63
2022-09-03T01:21:48.574Z,100399.69
2022-09-03T01:27:11.323Z,100401.53
2022-09-03T01:32:45.304Z,100404.09
2022-09-03T01:38:06.652Z,100401.41
2022-09-03T01:43:15.045Z,100410.63
2022-09-03T01:48:31.187Z,100399.13
2022-09-03T01:53:54.936Z,100397.00
2022-09-03T01:59:11.859Z,100399.84
2022-09-03T02:04:25.871Z,100391.78
2022-09-03T02:09:32.693Z,100411.31
2022-09-03T02:14:36.117Z,100399.69
2022-09-03T02:19:39.500Z,100398.84
2022-09-03T02:24:41.516Z,100404.78
2022-09-03T02:29:43.549Z,100388.50
2022-09-03T02:34:45.436Z,100389.94
2022-09-03T02:39:47.538Z,100392.31
2022-09-03T02:44:56.052Z,100391.22
2022-09-03T02:49:58.627Z,100386.09
2022-09-03T02:55:00.457Z,100382.16
2022-09-03T03:00:02.483Z,100381.00
2022-09-03T03:05:05.634Z,100383.41
2022-09-03T03:10:08.865Z,100384.97
2022-09-03T03:15:11.123Z,100397.56
2022-09-03T03:20:13.032Z,100390.22
2022-09-03T03:25:15.024Z,100376.19
2022-09-03T03:30:17.685Z,100386.81
2022-09-03T03:35:19.922Z,100393.19
2022-09-03T03:40:21.946Z,100398.59
2022-09-03T03:45:23.854Z,100397.59
2022-09-03T03:50:26.848Z,100397.59
2022-09-03T03:55:28.723Z,100396.16
2022-09-03T04:00:37.911Z,100384.13
2022-09-03T04:05:43.817Z,100384.00
2022-09-03T04:10:50.627Z,100390.50
2022-09-03T04:15:53.009Z,100388.63
2022-09-03T04:20:59.869Z,100394.31
2022-09-03T04:26:01.855Z,100387.53
2022-09-03T04:31:06.141Z,100382.41
2022-09-03T04:36:21.388Z,100390.94
2022-09-03T04:41:28.757Z,100385.81
2022-09-03T04:46:34.105Z,100383.53
2022-09-03T04:51:38.594Z,100390.94
2022-09-03T04:56:40.912Z,100380.16
2022-09-03T05:01:43.854Z,100388.50
2022-09-03T05:06:46.280Z,100402.09
2022-09-03T05:11:48.258Z,100397.72
2022-09-03T05:16:53.068Z,100402.25
2022-09-03T05:21:55.242Z,100395.03
2022-09-03T05:26:57.559Z,100396.16
2022-09-03T05:32:00.804Z,100409.06
2022-09-03T05:37:02.674Z,100397.16
2022-09-03T05:42:04.897Z,100393.19
2022-09-03T05:47:08.041Z,100401.97
2022-09-03T05:52:10.361Z,100401.28
2022-09-03T05:57:12.714Z,100411.03
2022-09-03T06:02:14.637Z,100408.19
2022-09-03T06:07:17.382Z,100410.16
2022-09-03T06:12:19.217Z,100413.44
2022-09-03T06:17:21.613Z,100409.31
2022-09-03T06:22:25.743Z,100418.06
2022-09-03T06:27:29.608Z,100419.50
2022-09-03T06:32:31.583Z,100420.84
2022-09-03T06:37:33.326Z,100419.81
2022-09-03T06:42:35.150Z,100422.94
2022-09-03T06:47:37.210Z,100426.75
2022-09-03T06:52:39.114Z,100417.59
2022-09-03T06:57:40.999Z,100427.06
2022-09-03T07:02:45.072Z,100421.94
2022-09-03T07:07:46.985Z,100433.81
2022-09-03T07:12:48.941Z,100439.75
2022-09-03T07:17:51.069Z,100432.09
2022-09-03T07:22:56.882Z,100438.66
2022-09-03T07:27:58.991Z,100435.09
2022-09-03T07:33:04.815Z,100437.06
2022-09-03T07:38:06.736Z,100435.13
2022-09-03T07:43:08.951Z,100433.41
2022-09-03T07:48:10.779Z,100434.06
2022-09-03T07:58:50.473Z,100445.13
2022-09-03T08:03:53.821Z,100445.81
2022-09-03T08:09:04.633Z,100440.16
2022-09-03T08:14:09.935Z,100445.69
2022-09-03T08:19:13.608Z,100444.94
2022-09-03T08:24:17.465Z,100451.31
2022-09-03T08:29:20.457Z,100450.53
2022-09-03T08:34:22.253Z,100446.22
2022-09-03T08:39:24.125Z,100454.69
2022-09-03T08:44:50.034Z,100457.38
2022-09-03T08:50:00.725Z,100456.03
2022-09-03T08:55:15.154Z,100462.22
2022-09-03T09:00:18.075Z,100460.41
2022-09-03T09:05:31.020Z,100467.31
2022-09-03T09:10:46.195Z,100468.34
2022-09-03T09:16:14.253Z,100469.88
2022-09-03T09:21:58.279Z,100475.78
2022-09-03T09:27:04.674Z,100473.94
2022-09-03T09:32:10.634Z,100475.81
2022-09-03T09:37:14.767Z,100476.53
2022-09-03T09:42:16.587Z,100468.34
2022-09-03T09:47:26.027Z,100473.53
2022-09-03T09:52:30.612Z,100471.81
2022-09-03T09:57:32.305Z,100472.75
2022-09-03T10:02:38.373Z,100465.94
2022-09-03T10:07:40.447Z,100462.13
2022-09-03T10:13:06.004Z,100464.13
2022-09-03T10:18:45.364Z,100472.94
2022-09-03T10:24:16.359Z,100463.19
2022-09-03T10:29:22.706Z,100469.00
2022-09-03T10:34:37.430Z,100460.78
2022-09-03T10:40:06.820Z,100466.34
2022-09-03T10:45:18.513Z,100457.53
2022-09-03T10:50:20.446Z,100455.56
2022-09-03T10:55:33.455Z,100459.81
2022-09-03T11:00:47.269Z,100458.41
2022-09-03T11:05:52.130Z,100448.94
2022-09-03T11:10:58.083Z,100456.13
2022-09-03T11:16:12.320Z,100448.47
2022-09-03T11:21:16.767Z,100449.34
2022-09-03T11:26:20.904Z,100453.84
2022-09-03T11:31:58.197Z,100445.84
2022-09-03T11:37:30.782Z,100436.91
2022-09-03T11:42:41.711Z,100433.69
2022-09-03T11:47:44.970Z,100420.69
2022-09-03T11:52:48.541Z,100423.25
2022-09-03T11:57:50.346Z,100417.59
2022-09-03T12:02:59.150Z,100417.84
2022-09-03T12:08:13.231Z,100425.88
2022-09-03T12:13:27.050Z,100430.28
2022-09-03T12:18:35.028Z,100436.09
2022-09-03T12:23:44.943Z,100435.44
2022-09-03T12:28:58.319Z,100432.31
2022-09-03T12:34:09.929Z,100431.97
2022-09-03T12:40:05.107Z,100428.34
2022-09-03T12:44:42.938Z,100418.13
2022-09-03T12:49:53.210Z,100412.34
2022-09-03T12:55:19.857Z,100417.28
2022-09-03T13:00:22.623Z,100419.09
2022-09-03T13:05:37.546Z,100423.22
2022-09-03T13:10:43.907Z,100428.59
2022-09-03T13:16:15.832Z,100408.09
2022-09-03T13:21:36.283Z,100423.66
2022-09-03T13:27:03.390Z,100417.97
2022-09-03T13:32:17.687Z,100424.78
2022-09-03T13:37:38.674Z,100416.63
2022-09-03T13:42:46.111Z,100414.47
2022-09-03T13:48:26.334Z,100412.50
2022-09-03T13:53:42.294Z,100417.66
2022-09-03T13:58:50.055Z,100419.47
2022-09-03T14:03:57.803Z,100403.63
2022-09-03T14:09:35.113Z,100415.09
2022-09-03T14:14:57.158Z,100427.63
2022-09-03T14:20:07.299Z,100418.16
2022-09-03T14:25:17.654Z,100425.78
2022-09-03T14:31:11.949Z,100423.75
2022-09-03T14:36:19.435Z,100413.63
2022-09-03T14:41:33.143Z,100424.59
2022-09-03T14:47:15.503Z,100422.31
2022-09-03T14:52:31.706Z,100414.94
2022-09-03T14:57:56.290Z,100416.81
2022-09-03T15:03:34.981Z,100415.75
2022-09-03T15:08:39.816Z,100418.06
2022-09-03T15:14:08.599Z,100431.13
2022-09-03T15:19:33.602Z,100434.25
2022-09-03T15:25:04.079Z,100431.31
2022-09-03T15:30:12.689Z,100439.66
2022-09-03T15:35:34.196Z,100429.03
2022-09-03T15:40:51.582Z,100432.91
2022-09-03T15:45:58.576Z,100442.22
2022-09-03T15:51:34.313Z,100435.97
2022-09-03T15:57:17.602Z,100436.41
2022-09-03T16:02:33.748Z,100429.53
2022-09-03T16:07:45.065Z,100441.66
2022-09-03T16:13:24.313Z,100452.41
2022-09-03T16:18:40.136Z,100443.78
2022-09-03T16:24:08.622Z,100442.53
2022-09-03T16:29:16.172Z,100443.53
2022-09-03T16:34:23.979Z,100435.50
2022-09-03T16:39:50.291Z,100451.66
2022-09-03T16:45:01.403Z,100454.41
2022-09-03T16:50:16.343Z,100455.53
2022-09-03T16:55:36.895Z,100452.72
2022-09-03T17:00:58.060Z,100457.25
2022-09-03T17:06:13.246Z,100467.44
2022-09-03T17:11:20.629Z,100466.03
2022-09-03T17:16:31.529Z,100476.09
2022-09-03T17:21:46.539Z,100474.66
2022-09-03T17:27:25.440Z,100476.16
2022-09-03T17:32:39.632Z,100475.38
2022-09-03T17:37:56.914Z,100481.84
2022-09-03T17:43:04.666Z,100486.84
2022-09-03T17:48:21.650Z,100488.78
2022-09-03T17:53:31.093Z,100504.09
2022-09-03T17:58:42.583Z,100498.19
2022-09-03T18:04:03.369Z,100505.69
2022-09-03T18:09:09.447Z,100508.63
2022-09-03T18:14:34.030Z,100514.63
2022-09-03T18:20:18.295Z,100529.47
2022-09-03T18:25:44.311Z,100530.28
2022-09-03T18:31:04.532Z,100534.44
2022-09-03T18:36:25.638Z,100539.16
2022-09-03T18:41:58.063Z,100542.13
2022-09-03T18:48:05.467Z,100550.31
2022-09-03T18:53:37.738Z,100546.78
2022-09-03T18:59:39.987Z,100558.41
2022-09-03T20:50:48.497Z,100665.84
2022-09-03T20:55:54.482Z,100665.56
2022-09-03T21:01:05.491Z,100675.78
2022-09-03T21:06:21.483Z,100676.63
2022-09-03T21:11:41.159Z,100680.97
2022-09-03T21:17:05.167Z,100670.25
2022-09-03T21:22:44.103Z,100676.03
2022-09-03T21:28:01.704Z,100670.75
2022-09-03T21:33:09.926Z,100677.69
2022-09-03T21:38:17.880Z,100674.34
2022-09-03T21:43:24.832Z,100683.91
2022-09-03T21:48:35.886Z,100688.34
2022-09-03T21:53:45.822Z,100693.13
2022-09-03T21:59:32.063Z,100699.00
2022-09-03T22:04:34.148Z,100699.50
2022-09-03T22:09:46.809Z,100708.94
2022-09-03T22:14:52.006Z,100709.41
2022-09-03T22:19:53.994Z,100712.97
2022-09-03T22:25:05.299Z,100717.97
2022-09-03T22:30:14.008Z,100719.81
2022-09-03T22:35:37.416Z,100715.13
2022-09-03T22:41:02.281Z,100722.06
2022-09-03T22:46:37.779Z,100720.75
2022-09-03T22:51:58.151Z,100726.72
2022-09-03T22:57:02.606Z,100719.78
2022-09-03T23:02:04.512Z,100722.72
2022-09-03T23:07:29.502Z,100722.47
2022-09-03T23:12:39.364Z,100722.59
2022-09-03T23:17:47.401Z,100727.84
2022-09-03T23:22:59.759Z,100721.34
2022-09-03T23:28:24.355Z,100727.25
2022-09-03T23:33:26.232Z,100734.94
2022-09-03T23:38:54.394Z,100733.75
2022-09-03T23:44:01.997Z,100735.94
2022-09-03T23:49:09.651Z,100735.00
2022-09-03T23:54:25.887Z,100736.44
2022-09-03T23:59:42.826Z,100742.69
